Latest Weather Observations for Orange Airport

IDN60801

Issued at 2:52 pm EST Thursday 28 May 2020 (issued every 10 minutes, with the page automatically refreshed every 10 minutes)

About weather observations | Map of weather stations | Latest weather observations for NSW | Other Formats
Station Details ID: 063303 Name: ORANGE AIRPORT AWS Lat: -33.38 Lon: 149.13 Height: 944.65 m
Data from the previous 72 hours. | See also: Recent months at Orange Airport
Date/Time
EST
Temp
°C
App
Temp
°C
Dew
Point
°C
Rel
Hum
%
Delta-T
°C
Wind Press
QNH
hPa
Press
MSL
hPa
Rain since
9am
mm
Dir  Spd
km/h
Gust
km/h
Spd
kts
Gust
kts
28/02:30pm 12.2 8.4 7.5 73 2.4 SSW 17 20 9 11 1022.0 1021.8 0.0
28/02:00pm 12.5 8.7 7.4 71 2.6 SW 17 22 9 12 1022.1 1021.9 0.0
28/01:30pm 12.2 8.3 7.3 72 2.5 SW 17 20 9 11 1022.1 1021.9 0.0
28/01:00pm 11.8 8.3 7.1 73 2.4 SSW 15 20 8 11 1022.3 1022.2 0.0
28/12:30pm 12.5 9.0 7.4 71 2.6 SSW 15 20 8 11 1022.7 1022.5 0.0
28/12:00pm 11.6 7.7 7.1 74 2.3 SW 17 20 9 11 1023.0 1022.8 0.0
28/11:30am 12.0 9.0 7.5 74 2.3 SW 13 20 7 11 1023.2 1023.1 0.0
28/11:00am 12.0 8.9 7.3 73 2.4 SW 13 20 7 11 1023.4 1023.3 0.0
28/10:30am 11.4 7.6 7.7 78 1.9 SW 17 20 9 11 1023.8 1023.6 0.0
28/10:00am 12.0 8.9 9.0 82 1.6 WSW 15 22 8 12 1024.0 1023.8 0.0
28/09:30am 11.0 8.0 7.7 80 1.7 SW 13 17 7 9 1023.8 1023.6 0.0
28/09:00am 9.9 8.5 7.3 84 1.3 SW 4 7 2 4 1023.6 1023.5 0.0
28/08:30am 8.2 7.4 8.1 99 0.1 SW 2 6 1 3 1023.4 1023.3 0.0
28/08:00am 5.3 3.1 5.2 99 0.0 SW 6 7 3 4 1023.1 1022.9 0.0
28/07:30am 3.1 0.5 3.0 99 0.0 SW 6 7 3 4 1022.9 1022.7 0.0
28/07:00am 1.7 -1.4 1.6 99 0.0 SW 7 9 4 5 1022.5 1022.4 0.0
28/06:30am 2.0 -1.0 1.9 99 0.0 SW 7 9 4 5 1022.2 1022.0 0.0
28/06:00am 1.4 -2.1 1.3 99 0.0 SW 9 9 5 5 1022.0 1021.8 0.0
28/05:30am 1.9 -1.5 1.8 99 0.0 SW 9 11 5 6 1021.7 1021.5 0.0
28/05:00am 1.6 -0.2 1.5 99 0.0 CALM 0 0 0 0 1021.6 1021.4 0.0
28/04:30am 2.1 0.4 2.0 99 0.0 CALM 0 0 0 0 1021.4 1021.3 0.0
28/04:00am 1.6 -0.9 1.3 98 0.1 SW 4 6 2 3 1021.4 1021.3 0.0
28/03:30am 2.9 0.2 2.8 99 0.0 SW 6 7 3 4 1021.2 1021.0 0.0
28/03:00am 2.1 -1.3 1.8 98 0.1 SW 9 11 5 6 1021.6 1021.4 0.0
28/02:30am 2.8 0.5 2.5 98 0.1 S 4 9 2 5 1021.7 1021.5 0.0
28/02:00am 3.4 1.9 3.0 97 0.2 CALM 0 0 0 0 1021.7 1021.5 0.0
28/01:30am 3.8 2.4 3.4 97 0.2 CALM 0 0 0 0 1021.7 1021.5 0.0
28/01:00am 4.1 2.7 3.7 97 0.2 CALM 0 0 0 0 1021.6 1021.4 0.0
28/12:30am 4.5 3.2 4.1 97 0.2 CALM 0 0 0 0 1021.8 1021.6 0.0
28/12:00am 4.5 3.2 4.1 97 0.2 CALM 0 0 0 0 1021.8 1021.6 0.0
 
Date/Time
EST
Temp
°C
App
Temp
°C
Dew
Point
°C
Rel
Hum
%
Delta-T
°C
Wind Press
QNH
hPa
Press
MSL
hPa
Rain since
9am
mm
Dir  Spd
km/h
Gust
km/h
Spd
kts
Gust
kts
27/11:30pm 4.6 3.3 4.0 96 0.3 CALM 0 0 0 0 1021.7 1021.5 0.0
27/11:00pm 5.1 2.8 4.8 98 0.1 S 6 7 3 4 1021.6 1021.4 0.0
27/10:30pm 4.7 2.3 4.4 98 0.1 S 6 7 3 4 1021.7 1021.5 0.0
27/10:00pm 4.2 1.7 3.5 95 0.3 S 6 7 3 4 1021.6 1021.4 0.0
27/09:30pm 4.8 2.4 4.2 96 0.3 S 6 9 3 5 1021.9 1021.7 0.0
27/09:00pm 4.6 1.1 3.4 92 0.5 S 11 13 6 7 1021.9 1021.7 0.0
27/08:30pm 5.7 2.4 4.5 92 0.5 SSW 11 13 6 7 1022.1 1021.9 0.0
27/08:00pm 5.8 2.5 4.8 93 0.5 SSW 11 13 6 7 1022.1 1021.9 0.0
27/07:30pm 6.2 3.3 4.8 91 0.6 S 9 11 5 6 1022.0 1021.8 0.0
27/07:00pm 6.5 3.6 4.8 89 0.8 SSW 9 11 5 6 1022.1 1021.9 0.0
27/06:30pm 7.6 4.8 5.2 85 1.1 WSW 9 11 5 6 1022.0 1021.8 0.0
27/06:00pm 8.8 6.5 5.5 80 1.6 SSW 7 9 4 5 1021.6 1021.4 0.0
27/05:30pm 9.8 7.2 6.2 78 1.8 SSW 9 11 5 6 1021.6 1021.4 0.0
27/05:00pm 10.4 8.5 6.7 78 1.8 SSW 6 9 3 5 1021.4 1021.3 0.0
27/04:30pm 10.7 8.2 6.6 76 2.0 S 9 13 5 7 1021.2 1021.0 0.0
27/04:00pm 11.2 8.1 7.1 76 2.1 SSW 13 17 7 9 1021.1 1020.9 0.0
27/03:30pm 11.7 8.6 7.4 75 2.2 SSW 13 17 7 9 1021.0 1020.8 0.0
27/03:00pm 12.0 9.0 7.7 75 2.2 SSW 13 17 7 9 1020.8 1020.6 0.0
27/02:30pm 12.3 9.7 7.6 73 2.4 SSE 11 15 6 8 1020.6 1020.4 0.0
27/02:00pm 12.5 10.1 7.0 69 2.8 S 9 13 5 7 1021.0 1020.8 0.0
27/01:30pm 12.8 10.8 7.3 69 2.8 W 7 11 4 6 1021.3 1021.2 0.0
27/01:00pm 12.9 11.4 6.9 67 3.0 S 4 9 2 5 1021.7 1021.5 0.0
27/12:30pm 12.9 11.2 7.4 69 2.8 N 6 9 3 5 1022.1 1021.9 0.0
27/12:00pm 11.8 9.6 6.3 69 2.7 NNE 7 11 4 6 1022.4 1022.3 0.0
27/11:30am 11.9 9.2 7.2 73 2.4 NNE 11 15 6 8 1023.0 1022.8 0.0
27/11:00am 11.1 8.6 6.5 73 2.3 N 9 13 5 7 1023.2 1023.1 0.0
27/10:30am 11.1 8.3 7.0 76 2.1 NE 11 17 6 9 1023.5 1023.4 0.0
27/10:00am 10.3 7.0 6.6 78 1.8 NE 13 17 7 9 1023.6 1023.5 0.0
27/09:30am 9.8 8.4 7.2 84 1.3 NE 4 11 2 6 1023.9 1023.7 0.0
27/09:00am 8.5 6.4 8.4 99 0.1 E 9 13 5 7 1023.4 1023.3 0.0
27/08:30am 6.5 5.7 6.4 99 0.0 CALM 0 6 0 3 1023.4 1023.3 0.0
27/08:07am 5.4 4.3 5.3 99 0.0 CALM 0 6 0 3 1023.2 1023.1 0.0
27/08:00am 4.8 3.6 4.7 99 0.0 CALM 0 0 0 0 1023.2 1023.1 0.0
27/07:30am 3.3 0.5 3.2 99 0.0 E 7 11 4 6 1022.9 1022.7 0.0
27/07:00am 3.6 0.9 3.5 99 0.0 ESE 7 9 4 5 1023.0 1022.8 0.0
27/06:30am 4.1 2.8 4.0 99 0.0 CALM 0 0 0 0 1022.8 1022.6 0.0
27/06:00am 3.9 2.5 3.8 99 0.0 CALM 0 0 0 0 1022.7 1022.5 0.0
27/05:30am 2.2 0.5 2.1 99 0.0 CALM 0 0 0 0 1022.4 1022.3 0.0
27/05:17am 2.7 0.8 2.6 99 0.0 E 2 7 1 4 1022.4 1022.3 0.0
27/05:00am 2.8 0.1 2.7 99 0.0 E 6 7 3 4 1022.4 1022.3 0.0
27/04:53am 2.3 -0.1 2.2 99 0.0 E 4 7 2 4 1022.5 1022.4 0.0
27/04:30am 3.1 1.6 3.0 99 0.0 CALM 0 0 0 0 1022.7 1022.5 0.0
27/04:24am 3.0 1.5 2.9 99 0.0 CALM 0 0 0 0 1022.8 1022.6 0.0
27/04:23am 3.1 1.6 3.0 99 0.0 CALM 0 0 0 0 1022.8 1022.6 0.0
27/04:00am 3.4 2.0 3.3 99 0.0 CALM 0 0 0 0 1022.8 1022.6 0.0
27/03:30am 4.0 2.7 3.9 99 0.0 CALM 0 0 0 0 1022.8 1022.6 0.0
27/03:00am 3.3 1.8 3.2 99 0.0 CALM 0 0 0 0 1023.1 1022.9 0.0
27/02:57am 3.6 2.2 3.5 99 0.0 CALM 0 0 0 0 1023.1 1022.9 0.0
27/02:30am 2.9 1.4 2.8 99 0.0 CALM 0 0 0 0 1023.2 1023.1 0.0
27/02:24am 3.0 1.5 2.9 99 0.0 CALM 0 0 0 0 1023.3 1023.2 0.0
27/02:06am 3.7 1.5 3.6 99 0.0 E 4 7 2 4 1023.3 1023.2 0.0
27/02:00am 2.9 1.0 2.8 99 0.0 ESE 2 7 1 4 1023.2 1023.1 0.0
27/01:30am 3.9 1.4 3.8 99 0.0 ESE 6 7 3 4 1023.8 1023.6 0.0
27/01:00am 3.5 0.3 3.2 98 0.1 ESE 9 11 5 6 1023.9 1023.7 0.0
27/12:30am 4.3 1.3 4.2 99 0.0 E 9 11 5 6 1024.0 1023.8 0.0
27/12:00am 4.3 1.7 4.0 98 0.1 ESE 7 11 4 6 1024.2 1024.1 0.0
 
Date/Time
EST
Temp
°C
App
Temp
°C
Dew
Point
°C
Rel
Hum
%
Delta-T
°C
Wind Press
QNH
hPa
Press
MSL
hPa
Rain since
9am
mm
Dir  Spd
km/h
Gust
km/h
Spd
kts
Gust
kts
26/11:30pm 4.3 1.2 3.7 96 0.3 E 9 9 5 5 1024.5 1024.4 0.0
26/11:00pm 4.6 1.2 4.0 96 0.3 E 11 13 6 7 1024.7 1024.6 0.0
26/10:30pm 4.1 0.5 3.2 94 0.4 E 11 13 6 7 1024.3 1024.2 0.0
26/10:00pm 4.9 1.9 4.2 95 0.3 E 9 11 5 6 1024.4 1024.3 0.0
26/09:30pm 5.2 1.7 3.5 89 0.8 ESE 11 13 6 7 1024.4 1024.3 0.0
26/09:00pm 7.0 3.0 5.0 87 0.9 ESE 15 19 8 10 1024.4 1024.3 0.0
26/08:30pm 8.4 3.9 6.0 85 1.2 E 19 26 10 14 1024.4 1024.3 0.0
26/08:00pm 8.9 5.7 7.0 88 0.9 E 13 19 7 10 1024.2 1024.1 0.0
26/07:30pm 9.1 5.6 7.4 89 0.8 E 15 22 8 12 1023.8 1023.6 0.0
26/07:10pm 9.3 5.1 7.4 88 1.0 ENE 19 24 10 13 1023.6 1023.5 0.0
26/07:00pm 9.3 5.8 7.4 88 0.9 E 15 24 8 13 1023.4 1023.3 0.0
26/06:56pm 9.4 5.6 7.5 88 1.0 E 17 24 9 13 1023.3 1023.2 0.0
26/06:30pm 9.7 6.3 7.5 86 1.1 E 15 22 8 12 1023.4 1023.3 0.0
26/06:00pm 9.8 5.6 7.4 85 1.2 E 19 24 10 13 1023.1 1022.9 0.0
26/05:30pm 9.6 6.9 7.5 87 1.1 E 11 17 6 9 1023.0 1022.8 0.0
26/05:00pm 10.7 8.6 8.3 85 1.2 ENE 9 15 5 8 1022.8 1022.6 0.0
26/04:30pm 11.2 9.1 8.1 81 1.6 E 9 13 5 7 1022.7 1022.5 0.0
26/04:00pm 12.5 10.5 8.6 77 2.0 E 9 13 5 7 1022.5 1022.4 0.0
26/03:30pm 12.6 10.7 8.9 78 2.0 E 9 13 5 7 1022.3 1022.2 0.0
26/03:00pm 12.7 9.8 8.2 74 2.3 E 13 19 7 10 1022.2 1022.0 0.0
26/02:30pm 12.5 8.5 8.4 76 2.1 ESE 19 24 10 13 1022.2 1022.0 0.0
26/02:00pm 12.3 9.0 9.5 83 1.5 E 17 24 9 13 1021.9 1021.7 0.0
26/01:30pm 11.9 8.7 9.8 87 1.1 E 17 22 9 12 1021.9 1021.7 0.0
26/01:00pm 12.3 8.9 10.4 88 1.0 ESE 19 24 10 13 1022.1 1021.9 0.0
26/12:30pm 11.7 7.8 9.6 87 1.1 SE 20 26 11 14 1022.7 1022.5 0.0
26/12:00pm 12.1 8.7 9.1 82 1.6 SE 17 22 9 12 1023.0 1022.8 0.0
26/11:30am 12.2 8.6 8.5 78 1.9 ESE 17 22 9 12 1023.6 1023.5 0.0
26/11:00am 12.2 8.0 8.3 77 2.0 ESE 20 32 11 17 1024.2 1024.1 0.0
26/10:30am 11.9 7.9 8.2 78 1.9 ESE 19 26 10 14 1024.4 1024.3 0.0
26/10:00am 12.0 8.6 9.2 83 1.5 ESE 17 24 9 13 1024.4 1024.3 0.0
26/09:30am 10.4 6.5 8.5 88 1.0 ESE 19 22 10 12 1024.1 1024.0 0.0
26/09:00am 9.7 6.4 8.0 89 0.9 SE 15 20 8 11 1024.2 1024.1 0.0
26/08:30am 9.2 5.4 7.6 90 0.8 SE 17 22 9 12 1023.6 1023.5 0.0
26/08:00am 8.6 5.6 7.5 93 0.5 SE 13 17 7 9 1023.3 1023.2 0.0
26/07:30am 7.6 4.4 7.0 96 0.3 ESE 13 19 7 10 1023.1 1022.9 0.0
26/07:10am 6.9 2.8 6.2 95 0.3 ESE 17 20 9 11 1023.0 1022.8 0.0
26/07:00am 7.1 2.7 6.5 96 0.3 ESE 19 24 10 13 1022.8 1022.6 0.0
26/06:30am 6.9 2.9 6.8 99 0.0 ESE 17 22 9 12 1022.4 1022.3 0.0
26/06:09am 5.6 1.7 5.5 99 0.0 SE 15 17 8 9 1022.4 1022.3 0.0
26/06:00am 5.1 1.1 4.8 98 0.1 SE 15 17 8 9 1022.3 1022.2 0.0
26/05:30am 5.0 1.3 4.6 97 0.2 SSE 13 15 7 8 1022.0 1021.8 0.0
26/05:00am 5.6 0.9 5.3 98 0.1 SE 19 24 10 13 1022.0 1021.8 0.0
26/04:30am 5.6 1.2 5.0 96 0.3 SSE 17 20 9 11 1021.9 1021.7 0.0
26/04:00am 6.1 1.5 5.4 95 0.3 SE 19 24 10 13 1022.2 1022.0 0.0
26/03:51am 6.2 1.6 5.5 95 0.3 SE 19 24 10 13 1022.2 1022.0 0.0
26/03:30am 6.5 1.7 5.6 94 0.4 SE 20 28 11 15 1022.3 1022.2 0.0
26/03:17am 7.0 2.0 6.6 97 0.2 SSE 22 30 12 16 1022.3 1022.2 0.0
26/03:00am 6.4 1.9 6.0 97 0.2 SSE 19 22 10 12 1022.3 1022.2 0.0
26/02:50am 6.3 2.1 5.7 96 0.3 SSE 17 24 9 13 1022.3 1022.2 0.0
26/02:30am 6.4 2.2 5.7 95 0.3 SSE 17 22 9 12 1022.3 1022.2 0.0
26/02:00am 6.7 3.3 6.0 95 0.3 SSE 13 17 7 9 1022.4 1022.3 0.0
26/01:30am 7.0 2.5 6.3 95 0.3 S 19 22 10 12 1022.5 1022.4 0.0
26/01:00am 6.5 1.9 5.6 94 0.4 SSE 19 26 10 14 1022.5 1022.4 0.0
26/12:30am 6.7 2.6 6.0 95 0.3 SSE 17 22 9 12 1022.5 1022.4 0.0
26/12:27am 6.5 2.3 5.6 94 0.4 SSE 17 20 9 11 1022.5 1022.4 0.0
26/12:00am 6.6 1.8 5.7 94 0.4 SSE 20 28 11 15 1022.4 1022.3 0.0
 
Date/Time
EST
Temp
°C
App
Temp
°C
Dew
Point
°C
Rel
Hum
%
Delta-T
°C
Wind Press
QNH
hPa
Press
MSL
hPa
Rain since
9am
mm
Dir  Spd
km/h
Gust
km/h
Spd
kts
Gust
kts
25/11:30pm 6.4 2.6 5.7 95 0.3 S 15 17 8 9 1022.2 1022.0 0.0
25/11:00pm 6.3 1.9 4.9 91 0.6 SSE 17 24 9 13 1022.5 1022.4 0.0
25/10:58pm 6.5 1.8 5.1 91 0.7 SSE 19 24 10 13 1022.5 1022.4 0.0
25/10:30pm 7.4 2.6 5.7 89 0.8 S 20 26 11 14 1022.5 1022.4 0.0
25/10:00pm 7.8 3.7 6.4 91 0.7 S 17 24 9 13 1022.7 1022.5 0.0
25/09:30pm 7.2 2.6 5.8 91 0.7 SSE 19 24 10 13 1022.4 1022.3 0.0
25/09:00pm 7.9 4.6 6.4 90 0.7 SSW 13 17 7 9 1022.5 1022.4 0.0
25/08:30pm 7.6 4.3 6.2 91 0.7 S 13 15 7 8 1022.2 1022.0 0.0
25/08:14pm 7.8 4.5 6.3 90 0.7 S 13 17 7 9 1022.0 1021.8 0.0
25/08:00pm 7.9 3.8 6.2 89 0.8 SSE 17 24 9 13 1021.8 1021.6 0.0
25/07:30pm 8.0 4.7 6.3 89 0.8 S 13 17 7 9 1021.7 1021.5 0.0
25/07:00pm 8.4 3.8 6.4 87 1.0 S 20 28 11 15 1021.6 1021.4 0.0
25/06:30pm 8.6 4.0 6.6 87 1.0 S 20 26 11 14 1021.2 1021.0 0.0
25/06:00pm 8.0 3.5 6.1 88 0.9 S 19 22 10 12 1020.8 1020.6 0.0
25/05:30pm 8.8 4.7 6.4 85 1.2 S 17 20 9 11 1020.5 1020.3 0.0
25/05:00pm 9.1 5.0 6.4 83 1.3 S 17 20 9 11 1020.4 1020.1 0.0
25/04:30pm 9.4 5.0 6.5 82 1.4 S 19 24 10 13 1020.2 1020.0 0.0
25/04:00pm 9.6 4.9 6.1 79 1.7 S 20 28 11 15 1020.1 1019.9 0.0
25/03:30pm 9.7 5.3 6.6 81 1.5 S 19 24 10 13 1020.1 1019.9 0.0
25/03:00pm 9.4 6.0 6.1 80 1.6 S 13 19 7 10 1020.1 1019.9 0.0

Other formats

Comma delimited format used in spreadsheet applications
http://www.bom.gov.au/fwo/IDN60801/IDN60801.95726.axf

JavaScript Object Notation format (JSON) in row-major order
http://www.bom.gov.au/fwo/IDN60801/IDN60801.95726.json

Data quality

Most of these data are generated automatically and are frequently updated. Quality checks on data are not normally performed. It is possible for incorrect values to appear. Refer to information at About Latest Weather Observations and please check the disclaimer before using these data.